NPG771 URSS-UKKM
Flight info
| Callsign | NPG771 |
|---|---|
| Flight time | N/A |
| Altitude | 37000 |
| Route | LAMET1D LAMET DCT RUTEP DCT RUGAN DCT GINEP DCT ENILO/K0843F380 DCT BASGA DCT KOSIR DCT TOVPU DCT LULAP DCT GOTAP |
| Aircraft | B738/M-SDE2E3FGHIRWXY/LB1 |
Departure
| Time | 2026-05-06 19:35 |
|---|---|
| Airport | Sochi International Airport (URSS) |
Arrival
| Time | N/A |
|---|---|
| Airport | Hostomel Airport (UKKM) |
| Time | Latitude | Longitude | Altitude | Speed | Heading |
|---|---|---|---|---|---|
| 2026-05-06 18:45 | 43.44381 | 39.93331 | 53 ft | 0 kts | 4° |
| 2026-05-06 19:19 | 43.44373 | 39.93330 | 48 ft | 4 kts | 4° |
| 2026-05-06 19:19 | 43.44346 | 39.93327 | 46 ft | 4 kts | 11° |
| 2026-05-06 19:20 | 43.44322 | 39.93315 | 47 ft | 4 kts | 50° |
| 2026-05-06 19:20 | 43.44318 | 39.93307 | 45 ft | 1 kts | 64° |
| 2026-05-06 19:26 | 43.44318 | 39.93308 | 47 ft | 1 kts | 64° |
| 2026-05-06 19:26 | 43.44322 | 39.93319 | 49 ft | 2 kts | 64° |
| 2026-05-06 19:26 | 43.44335 | 39.93355 | 50 ft | 6 kts | 64° |
| 2026-05-06 19:26 | 43.44358 | 39.93423 | 50 ft | 9 kts | 64° |
| 2026-05-06 19:27 | 43.44387 | 39.93507 | 52 ft | 10 kts | 64° |
| 2026-05-06 19:27 | 43.44415 | 39.93590 | 57 ft | 9 kts | 65° |
| 2026-05-06 19:27 | 43.44442 | 39.93670 | 54 ft | 9 kts | 64° |
| 2026-05-06 19:27 | 43.44470 | 39.93748 | 56 ft | 9 kts | 64° |
| 2026-05-06 19:28 | 43.44495 | 39.93824 | 59 ft | 9 kts | 64° |
| 2026-05-06 19:28 | 43.44520 | 39.93898 | 67 ft | 8 kts | 65° |
| 2026-05-06 19:28 | 43.44544 | 39.93970 | 71 ft | 8 kts | 65° |
| 2026-05-06 19:28 | 43.44568 | 39.94040 | 67 ft | 8 kts | 64° |
| 2026-05-06 19:29 | 43.44596 | 39.94121 | 72 ft | 10 kts | 65° |
| 2026-05-06 19:29 | 43.44630 | 39.94219 | 69 ft | 13 kts | 64° |
| 2026-05-06 19:29 | 43.44670 | 39.94337 | 67 ft | 15 kts | 66° |
| 2026-05-06 19:29 | 43.44714 | 39.94470 | 66 ft | 16 kts | 65° |
| 2026-05-06 19:30 | 43.44760 | 39.94601 | 67 ft | 15 kts | 64° |
| 2026-05-06 19:30 | 43.44803 | 39.94727 | 69 ft | 14 kts | 64° |
| 2026-05-06 19:30 | 43.44844 | 39.94848 | 65 ft | 14 kts | 64° |
| 2026-05-06 19:30 | 43.44884 | 39.94963 | 75 ft | 13 kts | 65° |
| 2026-05-06 19:31 | 43.44922 | 39.95074 | 81 ft | 13 kts | 63° |
| 2026-05-06 19:31 | 43.44961 | 39.95181 | 85 ft | 12 kts | 66° |
| 2026-05-06 19:31 | 43.44986 | 39.95323 | 87 ft | 0 kts | 125° |
| 2026-05-06 19:32 | 43.44984 | 39.95327 | 87 ft | 2 kts | 128° |
| 2026-05-06 19:33 | 43.44942 | 39.95363 | 88 ft | 11 kts | 154° |
| 2026-05-06 19:33 | 43.44899 | 39.95364 | 88 ft | 0 kts | 243° |
| 2026-05-06 19:34 | 43.44813 | 39.95113 | 72 ft | 64 kts | 244° |
| 2026-05-06 19:34 | 43.44527 | 39.94279 | 68 ft | 126 kts | 245° |
| 2026-05-06 19:34 | 43.44084 | 39.93013 | 245 ft | 157 kts | 243° |
| 2026-05-06 19:35 | 43.43595 | 39.91652 | 796 ft | 163 kts | 244° |
| 2026-05-06 19:35 | 43.43096 | 39.90214 | 1402 ft | 169 kts | 244° |
| 2026-05-06 19:35 | 43.42819 | 39.88564 | 1726 ft | 193 kts | 276° |
| 2026-05-06 19:35 | 43.42876 | 39.86637 | 1947 ft | 213 kts | 259° |
| 2026-05-06 19:36 | 43.42534 | 39.84578 | 2135 ft | 230 kts | 256° |
| 2026-05-06 19:36 | 43.42170 | 39.82357 | 2291 ft | 246 kts | 256° |
| 2026-05-06 19:36 | 43.41783 | 39.80004 | 2531 ft | 257 kts | 256° |
| 2026-05-06 19:36 | 43.41383 | 39.77619 | 3144 ft | 252 kts | 256° |
| 2026-05-06 19:37 | 43.40982 | 39.75264 | 3746 ft | 254 kts | 256° |
| 2026-05-06 19:37 | 43.40573 | 39.72890 | 4452 ft | 255 kts | 257° |
| 2026-05-06 19:37 | 43.40160 | 39.70520 | 5204 ft | 255 kts | 257° |
| 2026-05-06 19:37 | 43.39742 | 39.68134 | 5876 ft | 259 kts | 258° |
| 2026-05-06 19:38 | 43.39589 | 39.65682 | 6522 ft | 260 kts | 284° |
| 2026-05-06 19:38 | 43.40457 | 39.63564 | 7188 ft | 258 kts | 320° |
| 2026-05-06 19:38 | 43.41985 | 39.62292 | 7888 ft | 259 kts | 335° |
| 2026-05-06 19:38 | 43.43652 | 39.61319 | 8572 ft | 262 kts | 338° |
| 2026-05-06 19:39 | 43.45374 | 39.60397 | 9222 ft | 268 kts | 339° |
| 2026-05-06 19:39 | 43.47158 | 39.59455 | 9670 ft | 282 kts | 339° |
| 2026-05-06 19:39 | 43.49021 | 39.58467 | 10200 ft | 292 kts | 338° |
| 2026-05-06 19:39 | 43.50949 | 39.57436 | 10674 ft | 303 kts | 338° |
| 2026-05-06 19:40 | 43.52917 | 39.56374 | 11149 ft | 313 kts | 338° |
| 2026-05-06 19:40 | 43.54974 | 39.55257 | 11636 ft | 323 kts | 338° |
| 2026-05-06 19:40 | 43.57122 | 39.54083 | 12137 ft | 333 kts | 338° |
| 2026-05-06 19:40 | 43.59275 | 39.52903 | 12631 ft | 342 kts | 338° |
| 2026-05-06 19:41 | 43.61517 | 39.51669 | 13136 ft | 352 kts | 338° |
| 2026-05-06 19:41 | 43.63818 | 39.50400 | 13652 ft | 361 kts | 339° |
| 2026-05-06 19:41 | 43.66173 | 39.49099 | 14146 ft | 368 kts | 338° |
| 2026-05-06 19:41 | 43.68556 | 39.47780 | 14600 ft | 368 kts | 339° |
| 2026-05-06 19:42 | 43.70935 | 39.46461 | 15048 ft | 369 kts | 339° |
| 2026-05-06 19:42 | 43.73317 | 39.45139 | 15526 ft | 369 kts | 339° |
| 2026-05-06 19:42 | 43.75702 | 39.43814 | 15993 ft | 370 kts | 339° |
| 2026-05-06 19:42 | 43.78091 | 39.42486 | 16476 ft | 371 kts | 339° |
| 2026-05-06 19:43 | 43.80488 | 39.41152 | 16981 ft | 373 kts | 339° |
| 2026-05-06 19:43 | 43.82919 | 39.39799 | 17480 ft | 380 kts | 339° |
| 2026-05-06 19:43 | 43.85388 | 39.38423 | 17995 ft | 385 kts | 339° |
| 2026-05-06 19:43 | 43.87876 | 39.37036 | 18498 ft | 386 kts | 339° |
| 2026-05-06 19:44 | 43.90374 | 39.35640 | 18946 ft | 387 kts | 339° |
| 2026-05-06 19:44 | 43.92873 | 39.34243 | 19402 ft | 388 kts | 339° |
| 2026-05-06 19:44 | 43.95386 | 39.32837 | 19760 ft | 395 kts | 339° |
| 2026-05-06 19:44 | 43.97967 | 39.31393 | 20194 ft | 400 kts | 339° |
| 2026-05-06 19:45 | 44.00536 | 39.29952 | 20942 ft | 398 kts | 339° |
| 2026-05-06 19:45 | 44.03112 | 39.28507 | 21518 ft | 400 kts | 339° |
| 2026-05-06 19:45 | 44.05679 | 39.27065 | 22002 ft | 405 kts | 339° |
| 2026-05-06 19:45 | 44.08310 | 39.25587 | 22484 ft | 409 kts | 339° |
| 2026-05-06 19:46 | 44.10955 | 39.24099 | 23001 ft | 411 kts | 339° |
| 2026-05-06 19:46 | 44.13617 | 39.22600 | 23519 ft | 414 kts | 339° |
| 2026-05-06 19:46 | 44.16303 | 39.21086 | 23954 ft | 418 kts | 339° |
| 2026-05-06 19:46 | 44.19009 | 39.19559 | 24376 ft | 420 kts | 339° |
| 2026-05-06 19:47 | 44.21724 | 39.18025 | 24799 ft | 422 kts | 339° |
| 2026-05-06 19:47 | 44.24459 | 39.16479 | 25201 ft | 425 kts | 339° |
| 2026-05-06 19:47 | 44.27205 | 39.14925 | 25599 ft | 427 kts | 339° |
| 2026-05-06 19:47 | 44.29967 | 39.13360 | 25988 ft | 430 kts | 339° |
| 2026-05-06 19:48 | 44.32749 | 39.11782 | 26397 ft | 431 kts | 340° |
| 2026-05-06 19:48 | 44.35525 | 39.10207 | 26943 ft | 430 kts | 340° |
| 2026-05-06 19:48 | 44.38282 | 39.08638 | 27532 ft | 427 kts | 340° |
| 2026-05-06 19:48 | 44.41034 | 39.07072 | 28046 ft | 426 kts | 340° |
| 2026-05-06 19:49 | 44.43779 | 39.05509 | 28539 ft | 426 kts | 340° |
| 2026-05-06 19:49 | 44.46482 | 39.03968 | 29061 ft | 425 kts | 340° |
| 2026-05-06 19:49 | 44.49215 | 39.02409 | 29622 ft | 423 kts | 340° |
| 2026-05-06 19:49 | 44.51937 | 39.00854 | 30154 ft | 421 kts | 340° |
| 2026-05-06 19:50 | 44.54646 | 38.99305 | 30508 ft | 422 kts | 340° |
| 2026-05-06 19:50 | 44.57373 | 38.97744 | 30821 ft | 424 kts | 340° |
| 2026-05-06 19:50 | 44.60101 | 38.96182 | 31204 ft | 423 kts | 340° |
| 2026-05-06 19:50 | 44.62824 | 38.94621 | 31612 ft | 422 kts | 340° |
| 2026-05-06 19:51 | 44.65546 | 38.93057 | 31985 ft | 422 kts | 340° |
| 2026-05-06 19:51 | 44.68271 | 38.91492 | 32324 ft | 423 kts | 340° |
| 2026-05-06 19:51 | 44.70992 | 38.89926 | 32696 ft | 422 kts | 340° |
| 2026-05-06 19:51 | 44.73707 | 38.88363 | 33092 ft | 421 kts | 340° |
| 2026-05-06 19:52 | 44.76427 | 38.86795 | 33445 ft | 421 kts | 340° |
| 2026-05-06 19:52 | 44.79103 | 38.85251 | 33807 ft | 420 kts | 340° |
| 2026-05-06 19:52 | 44.81808 | 38.83689 | 34136 ft | 420 kts | 340° |
| 2026-05-06 19:52 | 44.84512 | 38.82125 | 34397 ft | 421 kts | 340° |
| 2026-05-06 19:53 | 44.87260 | 38.80535 | 34648 ft | 421 kts | 340° |
| 2026-05-06 19:53 | 44.89939 | 38.78983 | 34892 ft | 422 kts | 340° |
| 2026-05-06 19:53 | 44.92651 | 38.77410 | 35146 ft | 422 kts | 340° |
| 2026-05-06 19:53 | 44.95367 | 38.75833 | 35396 ft | 422 kts | 339° |
| 2026-05-06 19:54 | 44.98085 | 38.74254 | 35643 ft | 422 kts | 339° |
| 2026-05-06 19:54 | 45.00794 | 38.72678 | 35920 ft | 421 kts | 339° |
| 2026-05-06 19:54 | 45.03505 | 38.71099 | 36121 ft | 422 kts | 339° |
| 2026-05-06 19:54 | 45.06241 | 38.69505 | 36100 ft | 427 kts | 339° |
| 2026-05-06 19:55 | 45.11745 | 38.66291 | 36093 ft | 428 kts | 339° |
| 2026-05-06 19:55 | 45.17280 | 38.63054 | 36117 ft | 439 kts | 339° |
| 2026-05-06 19:56 | 45.22987 | 38.59710 | 36117 ft | 450 kts | 339° |
| 2026-05-06 19:56 | 45.28840 | 38.56271 | 36111 ft | 460 kts | 339° |
| 2026-05-06 19:57 | 45.34803 | 38.52758 | 36099 ft | 466 kts | 339° |
| 2026-05-06 19:57 | 45.40809 | 38.49211 | 36098 ft | 468 kts | 339° |
| 2026-05-06 19:58 | 45.46822 | 38.45651 | 36092 ft | 468 kts | 340° |
| 2026-05-06 19:58 | 45.52823 | 38.42092 | 36092 ft | 466 kts | 340° |
| 2026-05-06 19:59 | 45.58785 | 38.38548 | 36094 ft | 465 kts | 340° |
| 2026-05-06 19:59 | 45.64741 | 38.34999 | 36089 ft | 463 kts | 340° |
| 2026-05-06 20:00 | 45.70680 | 38.31453 | 36095 ft | 462 kts | 340° |
| 2026-05-06 20:00 | 45.76606 | 38.27905 | 36099 ft | 461 kts | 340° |
| 2026-05-06 20:01 | 45.82518 | 38.24359 | 36096 ft | 460 kts | 340° |
| 2026-05-06 20:01 | 45.88383 | 38.20832 | 36084 ft | 460 kts | 340° |
| 2026-05-06 20:02 | 45.94283 | 38.17276 | 36094 ft | 459 kts | 340° |
| 2026-05-06 20:02 | 46.00170 | 38.13719 | 36090 ft | 458 kts | 340° |
| 2026-05-06 20:03 | 46.06056 | 38.10155 | 36090 ft | 458 kts | 340° |
| 2026-05-06 20:03 | 46.11933 | 38.06588 | 36087 ft | 458 kts | 340° |
| 2026-05-06 20:04 | 46.17775 | 38.03072 | 36084 ft | 457 kts | 342° |
| 2026-05-06 20:04 | 46.23890 | 38.00492 | 36090 ft | 455 kts | 348° |
| 2026-05-06 20:05 | 46.29986 | 37.98258 | 36084 ft | 455 kts | 348° |
| 2026-05-06 20:05 | 46.36118 | 37.95963 | 36078 ft | 455 kts | 348° |
| 2026-05-06 20:06 | 46.42250 | 37.93597 | 36084 ft | 455 kts | 348° |
| 2026-05-06 20:06 | 46.48369 | 37.91206 | 36082 ft | 455 kts | 347° |
| 2026-05-06 20:07 | 46.54493 | 37.88805 | 36085 ft | 455 kts | 347° |
| 2026-05-06 20:07 | 46.60572 | 37.86418 | 36081 ft | 455 kts | 347° |
| 2026-05-06 20:08 | 46.66683 | 37.84014 | 36080 ft | 455 kts | 348° |
| 2026-05-06 20:08 | 46.72785 | 37.81608 | 36080 ft | 454 kts | 348° |
| 2026-05-06 20:09 | 46.78888 | 37.79196 | 36084 ft | 454 kts | 348° |
| 2026-05-06 20:09 | 46.84988 | 37.76779 | 36075 ft | 454 kts | 347° |
| 2026-05-06 20:10 | 46.91081 | 37.74361 | 36074 ft | 453 kts | 348° |
| 2026-05-06 20:10 | 46.96139 | 37.72347 | 36074 ft | 453 kts | 348° |
| 2026-05-06 20:11 | 47.02212 | 37.69925 | 36086 ft | 452 kts | 348° |
| 2026-05-06 20:11 | 47.09312 | 37.67087 | 36086 ft | 452 kts | 348° |
| 2026-05-06 20:12 | 47.15378 | 37.64655 | 36072 ft | 452 kts | 348° |
| 2026-05-06 20:12 | 47.21396 | 37.62238 | 36073 ft | 451 kts | 348° |
| 2026-05-06 20:13 | 47.27456 | 37.59797 | 36077 ft | 450 kts | 348° |
| 2026-05-06 20:13 | 47.32480 | 37.57768 | 36077 ft | 450 kts | 347° |
| 2026-05-06 20:14 | 47.38195 | 37.53930 | 36083 ft | 457 kts | 329° |
| 2026-05-06 20:14 | 47.43057 | 37.47806 | 36080 ft | 461 kts | 319° |